Time;durP1;ratioP1;P1;durP2;ratioP2;P2;SDS_P1;SDS_P2;PMS_P1;PMS_P2;Temp;Humidity;BMP_temperature;BMP_pressure;BME280_temperature;BME280_humidity;BME280_pressure;Samples;Min_cycle;Max_cycle;Signal;HPM_P1;HPM_P2
2022/05/16 00:01:37;;;;;;;;;;;19.20;76.40;;;;;;5021290;28;19988;-84
2022/05/16 00:04:04;;;;;;;;;;;19.20;76.40;;;;;;5026684;28;19925;-84
2022/05/16 00:06:33;;;;;;;;;;;19.10;76.40;;;;;;5020771;28;19925;-84
2022/05/16 00:09:00;;;;;;;;;;;19.10;76.50;;;;;;5027137;28;21922;-84
2022/05/16 00:11:27;;;;;;;;;;;19.10;76.60;;;;;;5025066;28;19929;-84
2022/05/16 00:13:54;;;;;;;;;;;19.00;76.50;;;;;;5030635;28;19929;-84
2022/05/16 00:16:21;;;;;;;;;;;19.00;76.70;;;;;;5029343;28;20218;-83
2022/05/16 00:18:48;;;;;;;;;;;19.00;76.70;;;;;;5024999;28;19933;-84
2022/05/16 00:21:15;;;;;;;;;;;18.90;76.60;;;;;;5022671;28;19936;-84
2022/05/16 00:23:43;;;;;;;;;;;18.90;76.80;;;;;;5026391;28;19933;-83
2022/05/16 00:26:10;;;;;;;;;;;18.90;76.90;;;;;;5028560;28;20350;-83
2022/05/16 00:28:38;;;;;;;;;;;18.80;77.00;;;;;;5024557;28;19956;-83
2022/05/16 00:31:05;;;;;;;;;;;18.80;77.00;;;;;;5027873;28;19932;-83
2022/05/16 00:33:32;;;;;;;;;;;18.80;76.90;;;;;;5025369;28;20055;-83
2022/05/16 00:35:59;;;;;;;;;;;18.80;77.00;;;;;;5025537;28;20079;-83
2022/05/16 00:38:26;;;;;;;;;;;18.70;76.90;;;;;;5023976;28;20025;-83
2022/05/16 00:40:57;;;;;;;;;;;18.70;77.10;;;;;;5033949;28;19925;-83
2022/05/16 00:43:25;;;;;;;;;;;18.70;77.20;;;;;;5030045;28;20038;-83
2022/05/16 00:45:52;;;;;;;;;;;18.70;77.30;;;;;;5023999;28;19989;-83
2022/05/16 00:48:19;;;;;;;;;;;18.60;77.20;;;;;;5030617;28;19925;-83
2022/05/16 00:50:47;;;;;;;;;;;18.60;77.30;;;;;;5026968;28;19952;-83
2022/05/16 00:53:15;;;;;;;;;;;18.60;77.40;;;;;;5028385;28;19929;-83
2022/05/16 00:55:42;;;;;;;;;;;18.50;77.40;;;;;;5034745;28;20023;-83
2022/05/16 00:58:12;;;;;;;;;;;18.50;77.60;;;;;;5026665;28;19956;-83
2022/05/16 01:00:40;;;;;;;;;;;18.50;77.60;;;;;;5028681;28;19932;-83
2022/05/16 01:05:53;;;;;;;;;;;18.40;77.60;;;;;;5041959;28;19932;-83
2022/05/16 01:08:24;;;;;;;;;;;18.40;77.80;;;;;;5036624;28;19925;-84
2022/05/16 01:10:51;;;;;;;;;;;18.40;77.70;;;;;;5020149;28;19929;-84
2022/05/16 01:13:23;;;;;;;;;;;18.40;77.80;;;;;;5023237;28;19980;-83
2022/05/16 01:15:50;;;;;;;;;;;18.30;77.80;;;;;;5024883;28;20387;-83
2022/05/16 01:18:18;;;;;;;;;;;18.30;78.00;;;;;;5033392;28;19933;-83
2022/05/16 01:21:00;;;;;;;;;;;18.30;78.10;;;;;;5021853;28;19993;-83
2022/05/16 01:23:31;;;;;;;;;;;18.30;78.20;;;;;;5030007;28;19929;-83
2022/05/16 01:25:59;;;;;;;;;;;18.30;78.30;;;;;;5036406;28;19930;-83
2022/05/16 01:28:26;;;;;;;;;;;18.20;78.20;;;;;;5030935;28;19945;-83
2022/05/16 01:30:54;;;;;;;;;;;18.20;78.20;;;;;;5033191;28;19929;-83
2022/05/16 01:33:23;;;;;;;;;;;18.20;78.30;;;;;;5022088;28;19929;-83
2022/05/16 01:35:50;;;;;;;;;;;18.10;78.30;;;;;;5024872;28;19933;-84
2022/05/16 01:38:22;;;;;;;;;;;18.10;78.30;;;;;;5023907;28;19936;-84
2022/05/16 01:40:50;;;;;;;;;;;18.10;78.40;;;;;;5029172;28;19987;-84
2022/05/16 01:43:19;;;;;;;;;;;18.10;78.50;;;;;;5026700;28;20478;-83
2022/05/16 01:45:46;;;;;;;;;;;18.00;78.40;;;;;;5031215;28;19952;-84
2022/05/16 01:48:14;;;;;;;;;;;18.00;78.60;;;;;;5033195;28;19941;-83
2022/05/16 01:50:41;;;;;;;;;;;18.20;78.80;;;;;;5029656;28;19940;-83
2022/05/16 01:53:08;;;;;;;;;;;18.00;78.60;;;;;;5025242;28;19940;-83
2022/05/16 01:55:35;;;;;;;;;;;17.90;78.50;;;;;;5034668;28;19936;-83
2022/05/16 01:58:04;;;;;;;;;;;17.90;78.60;;;;;;5031962;28;20110;-83
2022/05/16 02:00:31;;;;;;;;;;;17.90;78.80;;;;;;5028961;28;20351;-84
2022/05/16 02:02:58;;;;;;;;;;;17.90;79.00;;;;;;5035119;28;20025;-85
2022/05/16 02:05:25;;;;;;;;;;;17.80;78.90;;;;;;5041221;28;20040;-85
2022/05/16 02:07:52;;;;;;;;;;;17.80;79.00;;;;;;5030577;28;19936;-84
2022/05/16 02:10:20;;;;;;;;;;;17.80;79.00;;;;;;5044482;28;22149;-83
2022/05/16 02:12:47;;;;;;;;;;;17.70;79.00;;;;;;5023464;28;19934;-84
2022/05/16 02:15:18;;;;;;;;;;;17.70;79.20;;;;;;5021190;28;19929;-84
2022/05/16 02:17:45;;;;;;;;;;;17.70;79.30;;;;;;5101337;22;20051;-78
2022/05/16 02:20:12;;;;;;;;;;;17.70;79.40;;;;;;5035893;28;19928;-78
2022/05/16 02:25:24;;;;;;;;;;;17.60;79.40;;;;;;5018159;28;19921;-78
2022/05/16 02:27:51;;;;;;;;;;;17.60;79.50;;;;;;5017036;28;19933;-78
2022/05/16 02:30:21;;;;;;;;;;;17.60;79.50;;;;;;5024361;28;20014;-79
2022/05/16 02:32:48;;;;;;;;;;;17.60;79.60;;;;;;5019218;28;19941;-78
2022/05/16 02:35:15;;;;;;;;;;;17.50;79.60;;;;;;5033161;28;19933;-79
2022/05/16 02:37:42;;;;;;;;;;;17.50;80.00;;;;;;5022932;28;19924;-79
2022/05/16 02:40:09;;;;;;;;;;;17.50;79.90;;;;;;5030628;28;19931;-76
2022/05/16 02:42:36;;;;;;;;;;;17.50;80.00;;;;;;5024112;28;20012;-78
2022/05/16 02:45:04;;;;;;;;;;;17.50;80.10;;;;;;5044183;28;20239;-78
2022/05/16 02:47:32;;;;;;;;;;;17.50;80.20;;;;;;5018765;28;19978;-79
2022/05/16 02:49:59;;;;;;;;;;;17.40;80.20;;;;;;5016791;28;19925;-78
2022/05/16 02:52:26;;;;;;;;;;;17.40;80.20;;;;;;5017696;28;20552;-79
2022/05/16 02:54:53;;;;;;;;;;;;;;;;;;5018298;28;19925;-78
2022/05/16 02:57:20;;;;;;;;;;;17.30;79.30;;;;;;5017660;28;19961;-79
2022/05/16 02:59:47;;;;;;;;;;;17.40;80.10;;;;;;5016952;28;20020;-77
2022/05/16 03:02:14;;;;;;;;;;;17.40;80.10;;;;;;5024712;28;19925;-79
2022/05/16 03:04:42;;;;;;;;;;;17.30;80.00;;;;;;5012789;28;19992;-79
2022/05/16 03:07:09;;;;;;;;;;;17.30;80.10;;;;;;5032290;28;19940;-79
2022/05/16 03:09:36;;;;;;;;;;;17.30;80.30;;;;;;5019042;28;19941;-79
2022/05/16 03:12:03;;;;;;;;;;;17.30;81.00;;;;;;5015285;28;19933;-79
2022/05/16 03:14:30;;;;;;;;;;;17.30;81.30;;;;;;5026251;28;20367;-79
2022/05/16 03:16:57;;;;;;;;;;;17.30;81.40;;;;;;5029171;28;20125;-79
2022/05/16 03:19:24;;;;;;;;;;;17.30;81.40;;;;;;5035202;28;20387;-79
2022/05/16 03:21:53;;;;;;;;;;;17.20;81.30;;;;;;5011659;28;19932;-79
2022/05/16 03:24:20;;;;;;;;;;;17.20;81.30;;;;;;5018767;28;19929;-79
2022/05/16 03:26:46;;;;;;;;;;;17.20;81.20;;;;;;5021796;28;19955;-79
2022/05/16 03:29:14;;;;;;;;;;;17.20;81.20;;;;;;5010178;28;19925;-79
2022/05/16 03:31:41;;;;;;;;;;;17.10;81.10;;;;;;5015702;28;19953;-79
2022/05/16 03:34:09;;;;;;;;;;;17.10;81.30;;;;;;5016013;28;20552;-78
2022/05/16 03:36:36;;;;;;;;;;;17.10;81.40;;;;;;5028051;28;20005;-79
2022/05/16 03:41:50;;;;;;;;;;;17.10;81.40;;;;;;5015824;28;19929;-79
2022/05/16 03:44:18;;;;;;;;;;;17.10;81.40;;;;;;5017369;28;19965;-80
2022/05/16 03:46:45;;;;;;;;;;;17.00;81.40;;;;;;5016472;28;19928;-80
2022/05/16 03:49:12;;;;;;;;;;;17.00;81.50;;;;;;5022144;28;19952;-79
2022/05/16 03:51:39;;;;;;;;;;;17.00;81.60;;;;;;5024064;28;20403;-79
2022/05/16 03:54:08;;;;;;;;;;;17.00;81.60;;;;;;5032610;28;19936;-79
2022/05/16 03:56:34;;;;;;;;;;;17.00;81.70;;;;;;5015423;28;20350;-79
2022/05/16 03:59:01;;;;;;;;;;;17.00;82.00;;;;;;5021956;28;20456;-80
2022/05/16 04:01:28;;;;;;;;;;;17.00;82.40;;;;;;5027339;28;19940;-79
2022/05/16 04:03:55;;;;;;;;;;;16.90;82.40;;;;;;5022302;28;21583;-78
2022/05/16 04:06:22;;;;;;;;;;;16.90;82.40;;;;;;5021397;28;19929;-80
2022/05/16 04:08:49;;;;;;;;;;;16.90;82.30;;;;;;5022929;28;20101;-79
2022/05/16 04:11:18;;;;;;;;;;;16.90;82.20;;;;;;5020941;28;20019;-80
2022/05/16 04:13:45;;;;;;;;;;;16.90;82.20;;;;;;5035276;28;20024;-80
2022/05/16 04:16:12;;;;;;;;;;;16.90;82.30;;;;;;5023989;28;19941;-80
2022/05/16 04:18:40;;;;;;;;;;;16.80;82.40;;;;;;5014590;28;19983;-77
2022/05/16 04:21:07;;;;;;;;;;;16.80;82.40;;;;;;5014824;28;19933;-79
2022/05/16 04:23:35;;;;;;;;;;;16.80;82.50;;;;;;5019326;28;19925;-80
2022/05/16 04:26:01;;;;;;;;;;;16.80;82.60;;;;;;5024107;28;19968;-80
2022/05/16 04:28:30;;;;;;;;;;;16.80;82.60;;;;;;5017796;28;19995;-78
2022/05/16 04:30:57;;;;;;;;;;;16.80;82.40;;;;;;5015016;28;19941;-79
2022/05/16 04:33:24;;;;;;;;;;;16.80;82.50;;;;;;5022128;28;20398;-79
2022/05/16 04:35:51;;;;;;;;;;;16.70;82.50;;;;;;5023857;28;19952;-79
2022/05/16 04:38:18;;;;;;;;;;;16.70;82.50;;;;;;5015633;28;20513;-77
2022/05/16 04:43:30;;;;;;;;;;;16.70;82.70;;;;;;4994261;28;19921;-81
2022/05/16 04:45:57;;;;;;;;;;;16.60;83.30;;;;;;5017091;28;20405;-80
2022/05/16 04:48:24;;;;;;;;;;;16.70;83.00;;;;;;5037149;28;19931;-79
2022/05/16 04:50:51;;;;;;;;;;;16.70;83.10;;;;;;5019797;28;20101;-79
2022/05/16 04:53:18;;;;;;;;;;;16.70;83.10;;;;;;5032100;28;20105;-79
2022/05/16 04:55:45;;;;;;;;;;;16.60;83.00;;;;;;5015558;28;19933;-78
2022/05/16 04:58:12;;;;;;;;;;;16.60;83.20;;;;;;5024068;28;19951;-82
2022/05/16 05:00:40;;;;;;;;;;;16.60;83.40;;;;;;5024362;28;19992;-78
2022/05/16 05:03:07;;;;;;;;;;;16.60;85.60;;;;;;5019677;28;19933;-78
2022/05/16 05:05:35;;;;;;;;;;;16.60;86.50;;;;;;5026125;28;20441;-78
2022/05/16 05:08:02;;;;;;;;;;;16.60;88.40;;;;;;5023850;28;20319;-79
2022/05/16 05:16:03;;;;;;;;;;;16.50;91.90;;;;;;5016633;28;20545;-80
2022/05/16 05:18:31;;;;;;;;;;;16.50;86.30;;;;;;5013669;28;20415;-80
2022/05/16 05:20:58;;;;;;;;;;;16.60;88.70;;;;;;5018986;28;19933;-79
2022/05/16 05:23:25;;;;;;;;;;;16.60;88.80;;;;;;5027200;28;20302;-78
2022/05/16 05:25:52;;;;;;;;;;;16.60;88.20;;;;;;5022207;28;20019;-78
2022/05/16 05:28:19;;;;;;;;;;;16.50;87.60;;;;;;5021841;28;19925;-78
2022/05/16 05:30:47;;;;;;;;;;;16.50;87.40;;;;;;5030687;28;19925;-79
2022/05/16 05:33:15;;;;;;;;;;;16.50;87.30;;;;;;5025268;28;20011;-79
2022/05/16 05:35:42;;;;;;;;;;;16.50;87.10;;;;;;5034588;28;19937;-78
2022/05/16 05:38:10;;;;;;;;;;;16.50;87.00;;;;;;5020367;28;19928;-78
2022/05/16 05:40:37;;;;;;;;;;;16.50;87.20;;;;;;5013243;28;20024;-78
2022/05/16 05:43:04;;;;;;;;;;;16.50;87.30;;;;;;5042555;28;20458;-78
2022/05/16 05:45:32;;;;;;;;;;;16.50;87.30;;;;;;5022295;28;20002;-77
2022/05/16 05:47:59;;;;;;;;;;;16.50;87.40;;;;;;5019002;28;20013;-78
2022/05/16 05:50:27;;;;;;;;;;;16.50;88.40;;;;;;5021313;28;20396;-78
2022/05/16 05:52:54;;;;;;;;;;;16.40;89.40;;;;;;5020980;28;20133;-77
2022/05/16 05:55:21;;;;;;;;;;;16.40;89.90;;;;;;5022596;28;19925;-78
2022/05/16 05:57:48;;;;;;;;;;;16.40;90.70;;;;;;5024539;28;19933;-78
2022/05/16 06:00:15;;;;;;;;;;;16.40;91.60;;;;;;5027208;28;19960;-79
2022/05/16 06:02:43;;;;;;;;;;;16.40;88.90;;;;;;5026954;28;19947;-78
2022/05/16 06:05:10;;;;;;;;;;;16.40;87.20;;;;;;5023213;28;19929;-79
2022/05/16 06:07:39;;;;;;;;;;;16.40;88.00;;;;;;5024575;28;19933;-79
2022/05/16 06:10:06;;;;;;;;;;;16.40;88.10;;;;;;5028901;28;19924;-79
2022/05/16 06:12:33;;;;;;;;;;;16.40;88.40;;;;;;5028039;28;19929;-78
2022/05/16 06:15:00;;;;;;;;;;;16.40;88.40;;;;;;5021599;28;19933;-78
2022/05/16 06:17:27;;;;;;;;;;;16.40;88.00;;;;;;5026259;28;19933;-79
2022/05/16 06:19:55;;;;;;;;;;;16.40;87.90;;;;;;5025734;28;19934;-78
2022/05/16 06:22:22;;;;;;;;;;;16.40;87.90;;;;;;5026001;28;20007;-77
2022/05/16 06:27:35;;;;;;;;;;;16.30;87.90;;;;;;5027180;28;19933;-78
2022/05/16 06:30:02;;;;;;;;;;;16.30;88.10;;;;;;5027999;28;19978;-79
2022/05/16 06:32:29;;;;;;;;;;;16.30;88.70;;;;;;5027356;28;19925;-79
2022/05/16 06:34:56;;;;;;;;;;;16.30;89.00;;;;;;5023506;28;20306;-78
2022/05/16 06:37:23;;;;;;;;;;;16.30;89.10;;;;;;5030009;28;19925;-79
2022/05/16 06:39:51;;;;;;;;;;;16.30;89.50;;;;;;5021032;28;20040;-79
2022/05/16 06:42:19;;;;;;;;;;;16.30;89.60;;;;;;5016723;28;19933;-79
2022/05/16 06:44:45;;;;;;;;;;;16.30;89.60;;;;;;5022056;28;19925;-79
2022/05/16 06:47:12;;;;;;;;;;;16.30;89.60;;;;;;5020878;28;19937;-79
2022/05/16 06:49:39;;;;;;;;;;;16.30;89.60;;;;;;5027912;28;19925;-79
2022/05/16 06:52:06;;;;;;;;;;;16.30;89.60;;;;;;5036118;28;19952;-79
2022/05/16 06:54:33;;;;;;;;;;;16.30;89.60;;;;;;5026852;28;19926;-78
2022/05/16 06:57:02;;;;;;;;;;;16.30;89.80;;;;;;5022338;28;21885;-78
2022/05/16 06:59:29;;;;;;;;;;;16.30;90.00;;;;;;5022921;28;19940;-77
2022/05/16 07:01:56;;;;;;;;;;;16.40;90.20;;;;;;5022850;28;20048;-78
2022/05/16 07:04:23;;;;;;;;;;;16.30;90.30;;;;;;5019823;28;19929;-79
2022/05/16 07:06:50;;;;;;;;;;;16.30;90.40;;;;;;5030558;28;19925;-78
2022/05/16 07:09:17;;;;;;;;;;;16.30;90.50;;;;;;5018864;28;20556;-79
2022/05/16 07:11:44;;;;;;;;;;;16.30;90.50;;;;;;5020174;28;19929;-78
2022/05/16 07:14:13;;;;;;;;;;;16.30;90.40;;;;;;5027994;28;19933;-79
2022/05/16 07:16:40;;;;;;;;;;;16.30;90.40;;;;;;5020890;28;19925;-77
2022/05/16 07:19:07;;;;;;;;;;;16.30;90.40;;;;;;5039376;28;19940;-78
2022/05/16 07:21:34;;;;;;;;;;;16.30;90.40;;;;;;5022304;28;19925;-79
2022/05/16 07:24:02;;;;;;;;;;;16.30;90.50;;;;;;5022669;28;19937;-79
2022/05/16 07:29:15;;;;;;;;;;;16.30;90.80;;;;;;5023313;28;19940;-79
2022/05/16 07:31:42;;;;;;;;;;;16.30;91.00;;;;;;5026473;28;19925;-79
2022/05/16 07:34:08;;;;;;;;;;;16.30;91.00;;;;;;5033010;28;19955;-78
2022/05/16 07:36:35;;;;;;;;;;;16.30;91.30;;;;;;5052718;28;19929;-78
2022/05/16 07:39:02;;;;;;;;;;;16.30;91.20;;;;;;5030118;28;20040;-77
2022/05/16 07:41:31;;;;;;;;;;;16.30;91.30;;;;;;5032818;28;19933;-79
2022/05/16 07:43:58;;;;;;;;;;;16.30;91.30;;;;;;5023522;28;23130;-78
2022/05/16 07:46:26;;;;;;;;;;;16.30;91.30;;;;;;5028032;28;19987;-78
2022/05/16 07:48:53;;;;;;;;;;;16.30;91.30;;;;;;5033020;28;19926;-78
2022/05/16 07:51:20;;;;;;;;;;;16.30;91.20;;;;;;5022774;28;19964;-79
2022/05/16 07:53:47;;;;;;;;;;;16.30;91.20;;;;;;5021114;28;19925;-78
2022/05/16 07:56:14;;;;;;;;;;;16.30;91.20;;;;;;5019158;28;19937;-79
2022/05/16 07:58:41;;;;;;;;;;;16.30;91.30;;;;;;5024980;28;20345;-78
2022/05/16 08:01:08;;;;;;;;;;;16.30;91.40;;;;;;5024766;28;19925;-79
2022/05/16 08:03:36;;;;;;;;;;;16.30;91.40;;;;;;5025721;28;19925;-78
2022/05/16 08:06:03;;;;;;;;;;;16.30;91.40;;;;;;5023878;28;20364;-78
2022/05/16 08:11:15;;;;;;;;;;;16.30;91.40;;;;;;5019151;28;20627;-79
2022/05/16 08:13:42;;;;;;;;;;;16.30;91.40;;;;;;5023820;28;19925;-78
2022/05/16 08:16:10;;;;;;;;;;;16.30;91.50;;;;;;5024322;28;19932;-78
2022/05/16 08:18:38;;;;;;;;;;;16.30;91.50;;;;;;5107902;22;19924;-82
2022/05/16 08:21:05;;;;;;;;;;;16.30;91.50;;;;;;5045067;28;20010;-82
2022/05/16 08:23:33;;;;;;;;;;;16.30;91.40;;;;;;5044125;28;21469;-83
2022/05/16 08:26:01;;;;;;;;;;;16.30;91.40;;;;;;5037345;28;19963;-82
2022/05/16 08:28:28;;;;;;;;;;;16.30;91.40;;;;;;5044028;28;19925;-83
2022/05/16 08:30:55;;;;;;;;;;;16.30;91.50;;;;;;5045173;28;19932;-82
2022/05/16 08:33:22;;;;;;;;;;;16.30;91.70;;;;;;5032614;28;19979;-82
2022/05/16 08:41:18;;;;;;;;;;;16.40;92.10;;;;;;5041895;28;19925;-80
2022/05/16 08:43:50;;;;;;;;;;;16.40;92.10;;;;;;5046157;28;19932;-82
2022/05/16 08:46:24;;;;;;;;;;;16.40;92.30;;;;;;5047360;28;20194;-82
2022/05/16 08:48:54;;;;;;;;;;;16.40;92.40;;;;;;5043395;28;19933;-82
2022/05/16 08:51:23;;;;;;;;;;;16.40;92.40;;;;;;5039292;28;19935;-82
2022/05/16 08:53:55;;;;;;;;;;;16.40;92.50;;;;;;5058984;28;19965;-82
2022/05/16 08:56:26;;;;;;;;;;;16.40;92.70;;;;;;5056637;28;20315;-83
2022/05/16 08:58:56;;;;;;;;;;;16.40;92.80;;;;;;5040605;28;20303;-83
2022/05/16 09:01:27;;;;;;;;;;;16.40;92.70;;;;;;5045526;28;19979;-82
2022/05/16 09:03:55;;;;;;;;;;;16.50;92.80;;;;;;5045431;28;19928;-82
2022/05/16 09:06:26;;;;;;;;;;;16.40;92.80;;;;;;5038188;28;19928;-82
2022/05/16 09:08:56;;;;;;;;;;;16.50;92.80;;;;;;5048293;28;20012;-82
2022/05/16 09:11:28;;;;;;;;;;;16.50;93.00;;;;;;5042204;28;20318;-82
2022/05/16 09:13:58;;;;;;;;;;;16.50;92.80;;;;;;5047486;28;19925;-83
2022/05/16 09:16:45;;;;;;;;;;;16.50;93.10;;;;;;5034991;28;19932;-82
2022/05/16 09:19:19;;;;;;;;;;;16.50;93.40;;;;;;5043655;28;20067;-82
2022/05/16 09:21:52;;;;;;;;;;;16.60;93.40;;;;;;5060132;28;19925;-82
2022/05/16 09:24:24;;;;;;;;;;;16.60;93.80;;;;;;5040125;28;19936;-82
2022/05/16 09:26:53;;;;;;;;;;;16.60;94.10;;;;;;5046204;28;19929;-80
2022/05/16 09:29:24;;;;;;;;;;;16.60;94.10;;;;;;5058386;28;20019;-79
2022/05/16 09:31:53;;;;;;;;;;;16.60;94.30;;;;;;5047965;28;19947;-80
2022/05/16 09:34:19;;;;;;;;;;;16.70;94.30;;;;;;5040451;28;19943;-80
2022/05/16 09:36:50;;;;;;;;;;;16.70;94.40;;;;;;5046699;28;20135;-80
2022/05/16 09:39:22;;;;;;;;;;;16.70;94.70;;;;;;5039899;28;19960;-80
2022/05/16 09:41:55;;;;;;;;;;;16.70;95.00;;;;;;5046042;28;19929;-81
2022/05/16 09:44:24;;;;;;;;;;;16.70;95.40;;;;;;5048654;28;20009;-80
2022/05/16 09:46:52;;;;;;;;;;;16.70;95.40;;;;;;5045742;28;20349;-80
2022/05/16 09:49:21;;;;;;;;;;;16.70;95.30;;;;;;5049175;28;20446;-80
2022/05/16 09:51:51;;;;;;;;;;;16.80;95.50;;;;;;5059292;28;20011;-81
2022/05/16 09:54:28;;;;;;;;;;;16.80;95.30;;;;;;5045747;28;20111;-80
2022/05/16 09:57:13;;;;;;;;;;;16.80;94.90;;;;;;5049307;28;20614;-80
2022/05/16 09:59:42;;;;;;;;;;;16.80;95.20;;;;;;5040811;28;19926;-80
2022/05/16 10:02:26;;;;;;;;;;;16.80;95.20;;;;;;5055610;28;20587;-80
2022/05/16 10:04:55;;;;;;;;;;;16.80;95.50;;;;;;5045992;28;19925;-80
2022/05/16 10:07:28;;;;;;;;;;;16.80;95.50;;;;;;5056642;28;19932;-80
2022/05/16 10:09:55;;;;;;;;;;;16.90;95.40;;;;;;5051814;28;19928;-81
2022/05/16 10:12:24;;;;;;;;;;;16.90;95.70;;;;;;5046117;28;20296;-80
2022/05/16 10:14:51;;;;;;;;;;;16.90;95.50;;;;;;5053249;28;19971;-80
2022/05/16 10:17:22;;;;;;;;;;;17.00;95.70;;;;;;5045636;28;19960;-80
2022/05/16 10:19:51;;;;;;;;;;;17.00;96.80;;;;;;5045331;28;20032;-81
2022/05/16 10:22:19;;;;;;;;;;;17.00;97.20;;;;;;5051568;28;19925;-81
2022/05/16 10:24:52;;;;;;;;;;;17.00;97.00;;;;;;5052248;28;19947;-79
2022/05/16 10:27:22;;;;;;;;;;;17.10;97.20;;;;;;5038895;28;20469;-81
2022/05/16 10:29:51;;;;;;;;;;;17.10;95.30;;;;;;5043014;28;19933;-81
2022/05/16 10:35:09;;;;;;;;;;;17.20;95.90;;;;;;5043829;28;19979;-80
2022/05/16 10:37:39;;;;;;;;;;;17.20;96.30;;;;;;5045522;28;20015;-81
2022/05/16 10:40:09;;;;;;;;;;;17.20;97.30;;;;;;5046048;28;19956;-81
2022/05/16 10:42:38;;;;;;;;;;;17.30;97.80;;;;;;5040076;28;19932;-81
2022/05/16 10:45:07;;;;;;;;;;;17.30;97.50;;;;;;5054602;28;19940;-80
2022/05/16 10:47:36;;;;;;;;;;;17.40;98.20;;;;;;5047173;28;19937;-80
2022/05/16 10:50:04;;;;;;;;;;;17.30;98.20;;;;;;5053272;28;19929;-81
2022/05/16 10:52:34;;;;;;;;;;;17.40;98.70;;;;;;5049491;28;20011;-80
2022/05/16 10:55:01;;;;;;;;;;;17.40;99.00;;;;;;5049775;28;19929;-80
2022/05/16 10:57:36;;;;;;;;;;;17.40;99.00;;;;;;5046185;28;19925;-81
2022/05/16 11:00:07;;;;;;;;;;;17.50;98.90;;;;;;5050559;28;20057;-80
2022/05/16 11:02:48;;;;;;;;;;;17.50;99.30;;;;;;5045888;28;19925;-80
2022/05/16 11:05:20;;;;;;;;;;;17.50;99.80;;;;;;5044531;28;19929;-81
2022/05/16 11:07:52;;;;;;;;;;;17.60;99.70;;;;;;5047656;28;20253;-81
2022/05/16 11:10:22;;;;;;;;;;;17.60;99.80;;;;;;5052727;28;20007;-80
2022/05/16 11:12:53;;;;;;;;;;;17.70;99.90;;;;;;5051189;28;19929;-81
2022/05/16 11:15:26;;;;;;;;;;;17.70;99.90;;;;;;5039580;28;19956;-81
2022/05/16 11:17:56;;;;;;;;;;;17.80;99.90;;;;;;5055242;28;19993;-80
2022/05/16 11:20:28;;;;;;;;;;;17.80;99.90;;;;;;5045223;28;19947;-80
2022/05/16 11:22:57;;;;;;;;;;;17.90;99.90;;;;;;5045931;28;19929;-80
2022/05/16 11:25:26;;;;;;;;;;;17.90;99.90;;;;;;5048376;28;19932;-80
2022/05/16 11:28:01;;;;;;;;;;;17.90;99.90;;;;;;5045917;28;20433;-79
2022/05/16 11:30:36;;;;;;;;;;;18.00;99.90;;;;;;5043458;28;20587;-78
2022/05/16 11:33:07;;;;;;;;;;;18.10;99.90;;;;;;5043562;28;19932;-81
2022/05/16 11:35:36;;;;;;;;;;;18.20;99.90;;;;;;5056107;28;20012;-81
2022/05/16 11:38:10;;;;;;;;;;;18.20;99.90;;;;;;5036378;28;19932;-82
2022/05/16 11:40:40;;;;;;;;;;;18.30;99.90;;;;;;5045129;28;20454;-82
2022/05/16 11:43:14;;;;;;;;;;;18.30;99.90;;;;;;5037170;28;21628;-81
2022/05/16 11:45:57;;;;;;;;;;;18.40;99.90;;;;;;5035267;28;20362;-82
2022/05/16 11:48:26;;;;;;;;;;;18.40;99.90;;;;;;5041584;28;19928;-82
2022/05/16 11:50:59;;;;;;;;;;;18.40;99.90;;;;;;5040681;28;20014;-81
2022/05/16 11:53:37;;;;;;;;;;;18.50;99.90;;;;;;5053573;28;19925;-81
2022/05/16 12:01:39;;;;;;;;;;;18.60;99.90;;;;;;5039141;28;20850;-81
2022/05/16 12:04:12;;;;;;;;;;;18.60;99.90;;;;;;5037306;28;20403;-81
2022/05/16 12:06:39;;;;;;;;;;;18.60;99.90;;;;;;5044433;28;19925;-81
2022/05/16 12:09:15;;;;;;;;;;;18.60;99.90;;;;;;5040096;28;19968;-82
2022/05/16 12:11:49;;;;;;;;;;;18.60;99.90;;;;;;5041666;28;19983;-82
2022/05/16 12:14:26;;;;;;;;;;;18.50;99.90;;;;;;5040077;28;20216;-82
2022/05/16 12:16:57;;;;;;;;;;;18.50;99.90;;;;;;5042014;28;20318;-82
2022/05/16 12:19:27;;;;;;;;;;;18.50;99.90;;;;;;5045658;28;19983;-82
2022/05/16 12:21:55;;;;;;;;;;;18.50;99.90;;;;;;5039239;28;19929;-81
2022/05/16 12:24:27;;;;;;;;;;;18.50;99.90;;;;;;5043860;28;19932;-82
2022/05/16 12:27:09;;;;;;;;;;;18.50;99.90;;;;;;5040458;28;20031;-82
2022/05/16 12:29:45;;;;;;;;;;;18.40;99.90;;;;;;5043481;28;19931;-82
2022/05/16 12:32:20;;;;;;;;;;;18.40;99.90;;;;;;5045227;28;20394;-82
2022/05/16 12:34:48;;;;;;;;;;;18.40;99.90;;;;;;5044262;28;19925;-84
2022/05/16 12:37:16;;;;;;;;;;;18.40;99.90;;;;;;5053051;28;19929;-82
2022/05/16 12:39:48;;;;;;;;;;;18.40;99.90;;;;;;5043048;28;19924;-82
2022/05/16 12:42:26;;;;;;;;;;;18.40;99.90;;;;;;5044187;28;19971;-82
2022/05/16 12:44:56;;;;;;;;;;;18.40;99.90;;;;;;5034360;28;20431;-81
2022/05/16 12:47:38;;;;;;;;;;;18.40;99.90;;;;;;5034255;28;19998;-82
2022/05/16 12:50:15;;;;;;;;;;;18.40;99.90;;;;;;5044435;28;19952;-82
2022/05/16 12:52:56;;;;;;;;;;;18.40;99.90;;;;;;5030232;28;19925;-82
2022/05/16 12:55:47;;;;;;;;;;;18.40;99.90;;;;;;5049113;28;19933;-81
2022/05/16 12:58:17;;;;;;;;;;;18.30;99.90;;;;;;5047791;28;20169;-82
2022/05/16 13:00:49;;;;;;;;;;;18.30;99.90;;;;;;5039128;28;19933;-82
2022/05/16 13:03:29;;;;;;;;;;;18.30;99.90;;;;;;5044842;28;19985;-82
2022/05/16 13:05:58;;;;;;;;;;;18.30;99.90;;;;;;5040891;28;19935;-82
2022/05/16 13:08:30;;;;;;;;;;;18.30;99.90;;;;;;5050674;28;19975;-82
2022/05/16 13:11:02;;;;;;;;;;;18.30;99.90;;;;;;5036916;28;20449;-82
2022/05/16 13:13:39;;;;;;;;;;;18.30;99.90;;;;;;5041948;28;20050;-81
2022/05/16 13:16:10;;;;;;;;;;;18.30;99.90;;;;;;5041742;28;19983;-82
2022/05/16 13:18:43;;;;;;;;;;;18.20;99.90;;;;;;5042032;28;19925;-81
2022/05/16 13:21:13;;;;;;;;;;;18.30;99.90;;;;;;5033312;28;19929;-81
2022/05/16 13:23:40;;;;;;;;;;;18.20;99.90;;;;;;5036909;28;20004;-82
2022/05/16 13:31:42;;;;;;;;;;;18.20;99.90;;;;;;5036720;28;19967;-82
2022/05/16 13:34:10;;;;;;;;;;;18.20;99.90;;;;;;5040402;28;20402;-82
2022/05/16 13:36:38;;;;;;;;;;;18.20;99.90;;;;;;5034794;28;20391;-82
2022/05/16 13:39:09;;;;;;;;;;;18.20;99.90;;;;;;5033723;28;19976;-82
2022/05/16 13:41:37;;;;;;;;;;;18.20;99.90;;;;;;5042021;28;19959;-82
2022/05/16 13:44:05;;;;;;;;;;;18.20;99.90;;;;;;5040774;28;19928;-82
2022/05/16 13:46:33;;;;;;;;;;;18.10;99.90;;;;;;5037770;28;19982;-83
2022/05/16 13:49:04;;;;;;;;;;;18.20;99.90;;;;;;5030886;28;19928;-82
2022/05/16 13:51:31;;;;;;;;;;;18.10;99.90;;;;;;5040360;28;19929;-82
2022/05/16 13:54:04;;;;;;;;;;;18.10;99.90;;;;;;5044580;28;19925;-82
2022/05/16 13:56:38;;;;;;;;;;;18.10;99.90;;;;;;5048178;28;19928;-82
2022/05/16 13:59:06;;;;;;;;;;;18.10;99.90;;;;;;5018059;28;19933;-82
2022/05/16 14:01:33;;;;;;;;;;;18.10;99.90;;;;;;5044414;28;20026;-83
2022/05/16 14:04:04;;;;;;;;;;;18.10;99.90;;;;;;5034584;28;19925;-82
2022/05/16 14:06:34;;;;;;;;;;;18.10;99.90;;;;;;5040768;28;20298;-81
2022/05/16 14:09:03;;;;;;;;;;;18.10;99.90;;;;;;5038219;28;19933;-82
2022/05/16 14:11:31;;;;;;;;;;;18.10;99.90;;;;;;5043054;28;19933;-82
2022/05/16 14:13:59;;;;;;;;;;;18.10;99.90;;;;;;5034594;28;20158;-81
2022/05/16 14:16:27;;;;;;;;;;;18.20;99.90;;;;;;5043837;28;19929;-82
2022/05/16 14:19:02;;;;;;;;;;;18.20;99.90;;;;;;5097060;22;19960;-75
2022/05/16 14:21:35;;;;;;;;;;;18.20;99.90;;;;;;5037894;28;20406;-74
2022/05/16 14:24:05;;;;;;;;;;;18.20;99.90;;;;;;5037790;28;19925;-74
2022/05/16 14:26:48;;;;;;;;;;;18.20;99.90;;;;;;5039135;28;19925;-75
2022/05/16 14:29:17;;;;;;;;;;;18.30;99.90;;;;;;5040296;28;19967;-74
2022/05/16 14:31:46;;;;;;;;;;;18.30;99.90;;;;;;5046000;28;19941;-75
2022/05/16 14:34:22;;;;;;;;;;;18.40;99.90;;;;;;5042613;28;19935;-74
2022/05/16 14:36:50;;;;;;;;;;;18.40;99.90;;;;;;5051933;28;19925;-75
2022/05/16 14:39:20;;;;;;;;;;;18.40;99.90;;;;;;5047143;28;19924;-74
2022/05/16 14:41:50;;;;;;;;;;;18.50;99.90;;;;;;5040129;28;19968;-74
2022/05/16 14:44:18;;;;;;;;;;;18.50;99.90;;;;;;5041851;28;19931;-74
2022/05/16 14:46:56;;;;;;;;;;;18.60;99.90;;;;;;5043193;28;20406;-74
2022/05/16 14:49:24;;;;;;;;;;;18.60;99.90;;;;;;5039618;28;20047;-75
2022/05/16 14:51:51;;;;;;;;;;;18.70;99.90;;;;;;5028263;28;20020;-75
2022/05/16 14:54:21;;;;;;;;;;;18.80;99.90;;;;;;5046868;28;20404;-75
2022/05/16 14:56:48;;;;;;;;;;;18.80;99.90;;;;;;5051223;28;19925;-74
2022/05/16 14:59:15;;;;;;;;;;;18.80;99.90;;;;;;5039758;28;19924;-74
2022/05/16 15:04:28;;;;;;;;;;;18.90;99.90;;;;;;5043543;28;20355;-75
2022/05/16 15:06:55;;;;;;;;;;;18.90;99.90;;;;;;5045735;28;19929;-75
2022/05/16 15:09:22;;;;;;;;;;;;;;;;;;5036272;28;20652;-74
2022/05/16 15:11:51;;;;;;;;;;;19.10;99.90;;;;;;5040411;28;19929;-75
2022/05/16 15:14:19;;;;;;;;;;;19.10;99.90;;;;;;5032776;28;20033;-74
2022/05/16 15:16:46;;;;;;;;;;;19.10;99.90;;;;;;5039746;28;19925;-75